createdAt,value
2023-03-08T00:01:58.571Z,26.60
2023-03-08T00:04:27.968Z,29.10
2023-03-08T00:07:00.140Z,28.90
2023-03-08T00:09:29.394Z,30.90
2023-03-08T00:12:00.574Z,29.60
2023-03-08T00:14:32.172Z,29.00
2023-03-08T00:17:03.165Z,29.80
2023-03-08T00:19:32.623Z,28.50
2023-03-08T00:22:01.889Z,30.60
2023-03-08T00:24:31.497Z,32.20
2023-03-08T00:27:01.121Z,31.00
2023-03-08T00:29:32.132Z,29.00
2023-03-08T00:32:02.465Z,32.60
2023-03-08T00:34:32.305Z,34.70
2023-03-08T00:37:05.888Z,30.50
2023-03-08T00:39:36.075Z,31.90
2023-03-08T00:42:18.385Z,34.20
2023-03-08T00:44:54.502Z,31.70
2023-03-08T00:47:23.803Z,27.10
2023-03-08T00:49:53.022Z,27.30
2023-03-08T00:52:29.856Z,31.90
2023-03-08T00:54:59.673Z,30.50
2023-03-08T00:57:38.979Z,26.40
2023-03-08T01:00:11.900Z,32.30
2023-03-08T01:02:42.760Z,33.40
2023-03-08T01:05:11.852Z,30.10
2023-03-08T01:07:42.288Z,33.00
2023-03-08T01:10:12.787Z,25.20
2023-03-08T01:12:42.998Z,27.40
2023-03-08T01:15:12.379Z,29.80
2023-03-08T01:20:14.811Z,27.90
2023-03-08T01:22:48.636Z,31.80
2023-03-08T01:25:20.875Z,29.40
2023-03-08T01:27:56.288Z,30.00
2023-03-08T01:30:28.346Z,29.40
2023-03-08T01:32:57.749Z,30.30
2023-03-08T01:35:29.904Z,30.70
2023-03-08T01:37:58.957Z,28.00
2023-03-08T01:40:28.054Z,29.30
2023-03-08T01:42:57.746Z,28.30
2023-03-08T01:46:05.345Z,28.20
2023-03-08T01:48:41.352Z,28.10
2023-03-08T01:51:19.438Z,27.00
2023-03-08T01:53:51.567Z,26.70
2023-03-08T01:56:22.184Z,26.10
2023-03-08T01:58:52.687Z,28.70
2023-03-08T02:01:22.629Z,30.20
2023-03-08T02:03:52.741Z,28.80
2023-03-08T02:06:23.649Z,27.10
2023-03-08T02:08:54.143Z,28.20
2023-03-08T02:11:25.247Z,25.90
2023-03-08T02:13:56.496Z,25.30
2023-03-08T02:16:26.689Z,24.70
2023-03-08T02:19:00.669Z,24.60
2023-03-08T02:21:32.860Z,24.50
2023-03-08T02:24:23.749Z,24.00
2023-03-08T02:27:01.346Z,24.80
2023-03-08T02:29:31.601Z,22.90
2023-03-08T02:32:02.998Z,22.80
2023-03-08T02:34:34.063Z,25.50
2023-03-08T02:37:03.613Z,26.30
2023-03-08T02:39:33.873Z,25.60
2023-03-08T02:42:04.018Z,23.50
2023-03-08T02:44:33.312Z,23.90
2023-03-08T02:47:02.766Z,28.80
2023-03-08T02:49:32.167Z,25.50
2023-03-08T02:52:01.729Z,24.90
2023-03-08T02:54:30.934Z,28.50
2023-03-08T02:57:02.799Z,26.00
2023-03-08T02:59:33.314Z,31.00
2023-03-08T03:02:03.461Z,23.90
2023-03-08T03:04:34.906Z,25.90
2023-03-08T03:07:06.622Z,25.10
2023-03-08T03:09:37.341Z,25.80
2023-03-08T03:12:07.865Z,29.40
2023-03-08T03:14:39.379Z,22.50
2023-03-08T03:17:09.377Z,25.30
2023-03-08T03:19:39.484Z,31.80
2023-03-08T03:22:08.741Z,30.80
2023-03-08T03:24:39.971Z,30.80
2023-03-08T03:27:09.802Z,32.70
2023-03-08T03:29:42.725Z,28.80
2023-03-08T03:34:44.443Z,27.70
2023-03-08T03:37:14.825Z,24.10
2023-03-08T03:39:44.036Z,25.40
2023-03-08T03:42:16.523Z,27.10
2023-03-08T03:44:54.102Z,25.80
2023-03-08T03:47:24.595Z,29.20
2023-03-08T03:49:57.055Z,28.60
2023-03-08T03:52:27.868Z,28.90
2023-03-08T03:55:02.265Z,26.50
2023-03-08T03:57:32.513Z,30.90
2023-03-08T04:00:02.217Z,25.40
2023-03-08T04:02:44.007Z,25.20
2023-03-08T04:05:16.660Z,29.80
2023-03-08T04:07:56.866Z,28.50
2023-03-08T04:10:29.047Z,26.20
2023-03-08T04:13:00.296Z,28.60
2023-03-08T04:15:31.425Z,24.10
2023-03-08T04:18:02.220Z,24.30
2023-03-08T04:20:32.361Z,20.60
2023-03-08T04:23:07.213Z,21.90
2023-03-08T04:25:51.283Z,25.10
2023-03-08T04:28:24.748Z,21.00
2023-03-08T04:30:57.435Z,17.70
2023-03-08T04:33:38.166Z,21.50
2023-03-08T04:36:08.929Z,18.80
2023-03-08T04:38:40.872Z,17.00
2023-03-08T04:41:14.341Z,22.00
2023-03-08T04:44:04.787Z,18.30
2023-03-08T04:46:40.890Z,18.10
2023-03-08T04:49:11.610Z,20.20
2023-03-08T04:51:45.789Z,18.60
2023-03-08T04:54:16.528Z,18.90
2023-03-08T04:56:50.748Z,20.50
2023-03-08T04:59:22.067Z,19.80
2023-03-08T05:01:52.498Z,17.70
2023-03-08T05:04:24.027Z,20.50
2023-03-08T05:06:54.564Z,20.60
2023-03-08T05:09:27.526Z,20.20
2023-03-08T05:11:58.936Z,20.40
2023-03-08T05:14:35.883Z,19.00
2023-03-08T05:17:05.687Z,21.70
2023-03-08T05:19:37.410Z,22.60
2023-03-08T05:22:09.446Z,21.50
2023-03-08T05:24:46.612Z,24.00
2023-03-08T05:27:19.199Z,20.80
2023-03-08T05:29:48.479Z,21.00
2023-03-08T05:32:19.156Z,21.90
2023-03-08T05:34:48.277Z,24.30
2023-03-08T05:37:27.513Z,22.80
2023-03-08T05:39:59.940Z,22.40
2023-03-08T05:42:33.278Z,24.80
2023-03-08T05:45:03.095Z,23.40
2023-03-08T05:47:35.684Z,25.60
2023-03-08T05:50:06.164Z,22.50
2023-03-08T05:52:37.194Z,27.50
2023-03-08T05:55:07.398Z,23.10
2023-03-08T05:57:37.533Z,25.60
2023-03-08T06:00:09.369Z,27.20
2023-03-08T06:02:44.839Z,23.50
2023-03-08T06:05:17.244Z,21.40
2023-03-08T06:10:18.402Z,26.10
2023-03-08T06:12:48.869Z,24.70
2023-03-08T06:15:22.321Z,26.60
2023-03-08T06:17:55.610Z,25.50
2023-03-08T06:20:29.112Z,27.00
2023-03-08T06:23:04.196Z,29.90
2023-03-08T06:25:36.097Z,27.30
2023-03-08T06:28:05.723Z,29.30
2023-03-08T06:30:42.744Z,25.20
2023-03-08T06:33:13.994Z,21.90
2023-03-08T06:35:56.454Z,26.50
2023-03-08T06:38:29.868Z,28.90
2023-03-08T06:41:00.548Z,18.30
2023-03-08T06:43:30.862Z,30.20
2023-03-08T06:46:05.338Z,25.40
2023-03-08T06:48:36.373Z,25.90
2023-03-08T06:51:06.600Z,26.70
2023-03-08T06:53:38.708Z,23.80
2023-03-08T06:56:14.952Z,27.20
2023-03-08T06:58:44.443Z,29.50
2023-03-08T07:01:14.764Z,27.30
2023-03-08T07:03:45.819Z,29.90
2023-03-08T07:06:15.897Z,26.40
2023-03-08T07:08:48.867Z,22.60
2023-03-08T07:11:18.308Z,24.90
2023-03-08T07:13:47.862Z,25.40
2023-03-08T07:16:17.485Z,28.80
2023-03-08T07:18:46.839Z,25.10
2023-03-08T07:21:18.165Z,27.20
2023-03-08T07:23:56.881Z,23.50
2023-03-08T07:26:36.697Z,29.80
2023-03-08T07:29:10.545Z,22.90
2023-03-08T07:31:45.785Z,24.10
2023-03-08T07:34:15.755Z,25.40
2023-03-08T07:36:51.479Z,24.10
2023-03-08T07:39:23.483Z,25.20
2023-03-08T07:41:55.970Z,33.70
2023-03-08T07:46:57.468Z,44.50
2023-03-08T07:49:27.813Z,51.50
2023-03-08T07:51:57.972Z,50.50
2023-03-08T07:55:33.182Z,62.40
2023-03-08T07:58:09.478Z,55.20
2023-03-08T08:00:38.799Z,56.60
2023-03-08T08:03:08.856Z,49.80
2023-03-08T08:05:38.796Z,45.50
2023-03-08T08:08:09.601Z,37.00
2023-03-08T08:10:42.267Z,39.60
2023-03-08T08:13:12.548Z,37.10
2023-03-08T08:15:42.278Z,40.30
2023-03-08T08:18:11.473Z,37.20
2023-03-08T08:20:40.544Z,37.00
2023-03-08T08:23:10.267Z,31.00
2023-03-08T08:25:41.172Z,32.90
2023-03-08T08:28:10.338Z,31.00
2023-03-08T08:30:39.941Z,24.10
2023-03-08T08:33:09.627Z,17.80
2023-03-08T08:35:43.566Z,19.30
2023-03-08T08:38:15.641Z,21.50
2023-03-08T08:40:45.472Z,13.50
2023-03-08T08:43:15.171Z,11.70
2023-03-08T08:45:50.086Z,10.60
2023-03-08T08:48:19.905Z,7.00
2023-03-08T08:50:50.011Z,6.00
2023-03-08T08:53:21.022Z,6.20
2023-03-08T08:55:50.700Z,9.30
2023-03-08T08:58:21.630Z,6.80
2023-03-08T09:00:51.509Z,6.80
2023-03-08T09:03:21.172Z,7.20
2023-03-08T09:05:50.337Z,6.40
2023-03-08T09:08:19.671Z,7.60
2023-03-08T09:10:49.884Z,6.00
2023-03-08T09:13:19.326Z,9.40
2023-03-08T09:15:48.378Z,8.80
2023-03-08T09:18:17.705Z,8.50
2023-03-08T09:20:47.152Z,7.80
2023-03-08T09:23:16.671Z,8.90
2023-03-08T09:25:46.836Z,8.00
2023-03-08T09:28:51.608Z,6.40
2023-03-08T09:31:20.996Z,6.20
2023-03-08T09:33:52.399Z,8.90
2023-03-08T09:36:21.891Z,4.30
2023-03-08T09:38:52.747Z,5.40
2023-03-08T09:41:43.570Z,6.60
2023-03-08T09:44:35.435Z,7.60
2023-03-08T09:47:25.460Z,11.00
2023-03-08T09:50:03.442Z,7.00
2023-03-08T09:52:39.097Z,4.20
2023-03-08T09:55:32.052Z,5.50
2023-03-08T09:58:17.376Z,5.20
2023-03-08T10:00:47.917Z,7.20
2023-03-08T10:03:36.498Z,4.60
2023-03-08T10:06:35.382Z,5.60
2023-03-08T10:09:24.689Z,2.90
2023-03-08T10:12:13.423Z,6.80
2023-03-08T10:14:50.068Z,3.40
2023-03-08T10:17:34.508Z,6.90
2023-03-08T10:20:23.043Z,4.70
2023-03-08T10:23:02.312Z,5.10
2023-03-08T10:25:34.521Z,4.00
2023-03-08T10:28:12.015Z,5.10
2023-03-08T10:30:49.984Z,5.30
2023-03-08T10:33:24.811Z,3.20
2023-03-08T10:36:18.349Z,5.60
2023-03-08T10:39:04.551Z,3.50
2023-03-08T10:41:51.985Z,4.70
2023-03-08T10:44:40.968Z,4.10
2023-03-08T10:47:27.265Z,5.10
2023-03-08T10:50:13.695Z,3.80
2023-03-08T10:52:46.575Z,3.20
2023-03-08T10:55:20.695Z,5.00
2023-03-08T10:57:58.289Z,3.60
2023-03-08T11:00:41.218Z,3.90
2023-03-08T11:03:24.888Z,5.10
2023-03-08T11:06:01.513Z,8.20
2023-03-08T11:08:34.566Z,4.60
2023-03-08T11:11:05.863Z,3.50
2023-03-08T11:13:38.904Z,7.00
2023-03-08T11:16:32.717Z,4.60
2023-03-08T11:19:23.835Z,6.90
2023-03-08T11:22:09.723Z,4.00
2023-03-08T11:25:04.258Z,3.70
2023-03-08T11:28:08.829Z,5.00
2023-03-08T11:31:02.107Z,5.30
2023-03-08T11:33:43.221Z,3.90
2023-03-08T11:36:25.814Z,5.40
2023-03-08T11:39:26.732Z,6.20
2023-03-08T11:42:25.711Z,3.90
2023-03-08T11:45:22.498Z,4.90
2023-03-08T11:48:07.126Z,3.00
2023-03-08T11:51:24.923Z,4.00
2023-03-08T11:54:17.779Z,4.10
2023-03-08T11:56:53.380Z,4.00
2023-03-08T11:59:43.035Z,2.30
2023-03-08T12:02:30.888Z,4.10
2023-03-08T12:05:18.840Z,7.40
2023-03-08T12:08:43.342Z,3.00
2023-03-08T12:11:25.406Z,2.70
2023-03-08T12:14:07.026Z,3.10
2023-03-08T12:17:22.655Z,2.80
2023-03-08T12:19:53.924Z,2.90
2023-03-08T12:22:42.736Z,3.30
2023-03-08T12:25:26.266Z,3.30
2023-03-08T12:28:13.733Z,4.00
2023-03-08T12:31:24.841Z,3.90
2023-03-08T12:34:28.538Z,3.70
2023-03-08T12:37:22.456Z,3.00
2023-03-08T12:40:09.301Z,2.80
2023-03-08T12:42:42.058Z,2.80
2023-03-08T12:45:20.299Z,6.60
2023-03-08T12:48:18.055Z,5.90
2023-03-08T12:51:13.945Z,3.90
2023-03-08T12:53:57.314Z,4.00
2023-03-08T12:56:54.042Z,4.60
2023-03-08T12:59:31.970Z,6.80
2023-03-08T13:02:23.750Z,4.60
2023-03-08T13:05:33.176Z,3.90
2023-03-08T13:08:19.693Z,7.80
2023-03-08T13:11:30.740Z,3.80
2023-03-08T13:14:43.618Z,4.70
2023-03-08T13:17:50.506Z,4.80
2023-03-08T13:21:07.382Z,5.60
2023-03-08T13:24:15.738Z,4.40
2023-03-08T13:27:12.721Z,6.40
2023-03-08T13:29:47.250Z,3.30
2023-03-08T13:32:21.167Z,4.00
2023-03-08T13:35:04.324Z,3.40
2023-03-08T13:37:40.798Z,3.30
2023-03-08T13:40:26.270Z,3.30
2023-03-08T13:45:55.086Z,2.50
2023-03-08T13:48:42.357Z,2.20
2023-03-08T13:51:19.740Z,5.90
2023-03-08T13:54:04.484Z,8.10
2023-03-08T13:56:40.178Z,2.60
2023-03-08T13:59:23.279Z,6.90
2023-03-08T14:02:11.935Z,6.10
2023-03-08T14:05:05.200Z,3.80
2023-03-08T14:07:58.993Z,4.80
2023-03-08T14:10:42.793Z,4.60
2023-03-08T14:13:29.657Z,3.30
2023-03-08T14:16:05.705Z,3.80
2023-03-08T14:18:43.854Z,3.60
2023-03-08T14:21:25.978Z,4.70
2023-03-08T14:23:59.494Z,4.10
2023-03-08T14:26:39.349Z,5.20
2023-03-08T14:29:37.838Z,4.60
2023-03-08T14:32:19.199Z,3.60
2023-03-08T14:34:58.706Z,5.50
2023-03-08T14:38:00.796Z,9.40
2023-03-08T14:40:32.206Z,5.40
2023-03-08T14:43:26.747Z,4.10
2023-03-08T14:46:04.493Z,6.20
2023-03-08T14:48:52.340Z,5.70
2023-03-08T14:51:53.536Z,4.00
2023-03-08T14:54:36.730Z,6.50
2023-03-08T14:57:30.458Z,4.50
2023-03-08T15:00:18.677Z,4.60
2023-03-08T15:02:52.840Z,5.80
2023-03-08T15:08:03.578Z,5.30
2023-03-08T15:10:37.999Z,5.40
2023-03-08T15:13:17.690Z,4.50
2023-03-08T15:15:51.084Z,7.20
2023-03-08T15:18:21.426Z,3.30
2023-03-08T15:20:53.117Z,6.10
2023-03-08T15:23:26.784Z,4.20
2023-03-08T15:25:58.456Z,5.50
2023-03-08T15:28:27.631Z,4.60
2023-03-08T15:30:56.845Z,8.60
2023-03-08T15:33:29.187Z,7.10
2023-03-08T15:35:59.239Z,4.50
2023-03-08T15:38:29.222Z,4.90
2023-03-08T15:41:02.957Z,9.80
2023-03-08T15:43:47.770Z,5.60
2023-03-08T15:46:20.213Z,5.30
2023-03-08T15:48:51.532Z,3.60
2023-03-08T15:51:28.553Z,5.90
2023-03-08T15:54:02.431Z,4.90
2023-03-08T15:56:32.140Z,5.30
2023-03-08T15:59:02.660Z,10.00
2023-03-08T16:01:40.663Z,6.80
2023-03-08T16:04:12.602Z,4.80
2023-03-08T16:06:44.142Z,6.40
2023-03-08T16:09:18.117Z,8.10
2023-03-08T16:11:49.326Z,6.40
2023-03-08T16:14:19.115Z,6.50
2023-03-08T16:16:49.117Z,5.40
2023-03-08T16:19:18.462Z,6.60
2023-03-08T16:21:50.664Z,6.00
2023-03-08T16:24:20.338Z,5.00
2023-03-08T16:26:54.784Z,14.10
2023-03-08T16:29:26.990Z,8.00
2023-03-08T16:32:01.307Z,9.10
2023-03-08T16:34:30.847Z,6.30
2023-03-08T16:37:00.012Z,5.00
2023-03-08T16:39:30.373Z,7.70
2023-03-08T16:42:00.399Z,8.30
2023-03-08T16:44:35.623Z,9.40
2023-03-08T16:47:05.537Z,6.60
2023-03-08T16:49:37.012Z,4.60
2023-03-08T16:52:06.335Z,6.00
2023-03-08T16:54:36.494Z,8.00
2023-03-08T16:57:18.280Z,4.80
2023-03-08T16:59:53.994Z,5.40
2023-03-08T17:02:26.181Z,8.90
2023-03-08T17:07:47.461Z,7.80
2023-03-08T17:10:29.558Z,5.50
2023-03-08T17:13:02.435Z,6.80
2023-03-08T17:15:43.119Z,6.70
2023-03-08T17:18:15.578Z,7.20
2023-03-08T17:20:49.011Z,6.00
2023-03-08T17:23:28.574Z,8.10
2023-03-08T17:26:09.486Z,7.70
2023-03-08T17:28:51.379Z,5.10
2023-03-08T17:31:29.091Z,6.00
2023-03-08T17:34:16.403Z,5.40
2023-03-08T17:36:57.107Z,5.20
2023-03-08T17:39:53.306Z,8.30
2023-03-08T17:45:31.610Z,5.70
2023-03-08T17:48:04.472Z,5.90
2023-03-08T17:50:35.064Z,5.90
2023-03-08T17:53:04.775Z,8.20
2023-03-08T17:55:34.158Z,6.40
2023-03-08T17:58:06.665Z,6.70
2023-03-08T18:00:36.436Z,7.70
2023-03-08T18:03:06.771Z,6.20
2023-03-08T18:05:36.679Z,4.90
2023-03-08T18:08:08.864Z,6.50
2023-03-08T18:13:08.988Z,6.60
2023-03-08T18:15:38.614Z,5.70
2023-03-08T18:18:08.716Z,8.30
2023-03-08T18:20:37.983Z,7.80
2023-03-08T18:25:39.204Z,6.30
2023-03-08T18:28:09.070Z,6.60
2023-03-08T18:30:39.880Z,6.90
2023-03-08T18:33:09.236Z,10.60
2023-03-08T18:35:38.489Z,9.90
2023-03-08T18:38:08.663Z,9.70
2023-03-08T18:40:37.991Z,10.10
2023-03-08T18:43:08.511Z,6.60
2023-03-08T18:45:37.715Z,7.50
2023-03-08T18:48:07.088Z,8.20
2023-03-08T18:51:02.216Z,7.60
2023-03-08T18:53:40.610Z,5.90
2023-03-08T18:56:11.838Z,6.60
2023-03-08T18:58:41.364Z,6.00
2023-03-08T19:01:31.961Z,7.10
2023-03-08T19:04:08.412Z,8.40
2023-03-08T19:06:41.593Z,7.70
2023-03-08T19:09:18.021Z,6.50
2023-03-08T19:12:12.430Z,6.40
2023-03-08T19:14:41.498Z,12.20
2023-03-08T19:17:11.235Z,8.00
2023-03-08T19:19:59.573Z,8.10
2023-03-08T19:22:28.943Z,7.20
2023-03-08T19:24:58.274Z,12.10
2023-03-08T19:27:29.541Z,13.50
2023-03-08T19:29:59.600Z,7.80
2023-03-08T19:32:30.816Z,10.30
2023-03-08T19:35:00.087Z,14.10
2023-03-08T19:37:33.697Z,14.70
2023-03-08T19:40:05.916Z,11.40
2023-03-08T19:42:36.753Z,13.80
2023-03-08T19:45:09.160Z,13.20
2023-03-08T19:47:39.588Z,20.80
2023-03-08T19:50:13.522Z,13.30
2023-03-08T19:52:42.838Z,17.20
2023-03-08T19:57:46.583Z,10.50
2023-03-08T20:00:18.500Z,5.60
2023-03-08T20:02:49.285Z,5.00
2023-03-08T20:05:18.989Z,4.60
2023-03-08T20:07:49.803Z,7.40
2023-03-08T20:10:19.582Z,5.80
2023-03-08T20:12:52.969Z,7.30
2023-03-08T20:15:24.459Z,5.90
2023-03-08T20:17:56.195Z,6.00
2023-03-08T20:20:25.498Z,7.80
2023-03-08T20:22:56.327Z,7.00
2023-03-08T20:25:30.970Z,7.70
2023-03-08T20:28:01.076Z,7.10
2023-03-08T20:30:38.422Z,5.90
2023-03-08T20:33:12.955Z,9.20
2023-03-08T20:35:49.615Z,4.70
2023-03-08T20:38:22.308Z,7.30
2023-03-08T20:43:37.108Z,7.60
2023-03-08T20:46:13.417Z,5.60
2023-03-08T20:48:57.609Z,5.00
2023-03-08T20:51:30.726Z,5.10
2023-03-08T20:54:01.809Z,5.60
2023-03-08T20:56:30.929Z,5.50
2023-03-08T20:59:01.577Z,5.40
2023-03-08T21:01:33.823Z,5.10
2023-03-08T21:04:03.461Z,8.90
2023-03-08T21:06:34.534Z,5.40
2023-03-08T21:09:04.767Z,5.20
2023-03-08T21:11:34.546Z,5.80
2023-03-08T21:14:04.227Z,5.10
2023-03-08T21:16:33.861Z,6.40
2023-03-08T21:19:04.835Z,6.20
2023-03-08T21:21:41.586Z,5.50
2023-03-08T21:24:15.282Z,5.30
2023-03-08T21:26:48.520Z,7.50
2023-03-08T21:29:22.732Z,5.40
2023-03-08T21:31:54.475Z,5.60
2023-03-08T21:34:23.803Z,6.40
2023-03-08T21:36:54.402Z,8.00
2023-03-08T21:39:26.952Z,6.80
2023-03-08T21:41:58.950Z,4.00
2023-03-08T21:44:31.585Z,5.40
2023-03-08T21:47:01.409Z,5.00
2023-03-08T21:49:32.570Z,4.20
2023-03-08T21:52:04.988Z,3.20
2023-03-08T21:54:34.382Z,6.90
2023-03-08T21:57:04.472Z,5.40
2023-03-08T21:59:33.510Z,7.10
2023-03-08T22:02:02.777Z,5.00
2023-03-08T22:04:34.213Z,5.20
2023-03-08T22:07:04.476Z,6.40
2023-03-08T22:09:35.415Z,5.50
2023-03-08T22:12:04.761Z,5.70
2023-03-08T22:14:34.781Z,6.60
2023-03-08T22:17:05.020Z,5.00
2023-03-08T22:19:35.835Z,4.70
2023-03-08T22:22:05.562Z,4.90
2023-03-08T22:24:35.479Z,5.60
2023-03-08T22:27:05.709Z,4.80
2023-03-08T22:29:35.014Z,5.30
2023-03-08T22:32:08.877Z,8.50
2023-03-08T22:34:38.133Z,16.60
2023-03-08T22:37:09.483Z,16.90
2023-03-08T22:39:39.661Z,18.40
2023-03-08T22:42:10.164Z,19.70
2023-03-08T22:44:40.745Z,19.60
2023-03-08T22:47:09.903Z,18.10
2023-03-08T22:49:39.836Z,19.00
2023-03-08T22:52:10.063Z,17.50
2023-03-08T22:54:39.188Z,18.60
2023-03-08T22:57:08.946Z,19.40
2023-03-08T22:59:39.111Z,17.60
2023-03-08T23:02:11.001Z,20.10
2023-03-08T23:04:42.303Z,17.00
2023-03-08T23:07:12.425Z,18.80
2023-03-08T23:09:41.725Z,23.50
2023-03-08T23:12:12.380Z,17.90
2023-03-08T23:14:45.363Z,24.20
2023-03-08T23:17:15.650Z,21.10
2023-03-08T23:19:45.491Z,16.30
2023-03-08T23:22:17.363Z,17.40
2023-03-08T23:24:49.618Z,24.10
2023-03-08T23:27:18.961Z,17.80
2023-03-08T23:29:53.362Z,16.80
2023-03-08T23:32:23.199Z,17.70
2023-03-08T23:34:52.349Z,18.00
2023-03-08T23:37:21.463Z,17.60
2023-03-08T23:39:50.682Z,17.80
2023-03-08T23:42:20.836Z,17.80
2023-03-08T23:44:52.840Z,19.00
2023-03-08T23:47:22.688Z,20.40
2023-03-08T23:49:52.176Z,24.20
2023-03-08T23:52:25.192Z,18.20
2023-03-08T23:54:54.942Z,19.20
2023-03-08T23:57:23.936Z,20.20
2023-03-08T23:59:54.477Z,22.50
